Time;durP1;ratioP1;P1;durP2;ratioP2;P2;SDS_P1;SDS_P2;PMS_P1;PMS_P2;Temp;Humidity;BMP_temperature;BMP_pressure;BME280_temperature;BME280_humidity;BME280_pressure;Samples;Min_cycle;Max_cycle;Signal;HPM_P1;HPM_P2
2022/01/30 00:00:24;;;;;;;29.70;4.38;;;7.60;99.90;;;;;;5028587;28;20044;-59
2022/01/30 00:02:53;;;;;;;25.15;4.05;;;7.50;99.90;;;;;;5030590;28;20057;-58
2022/01/30 00:05:19;;;;;;;20.98;4.45;;;7.50;99.90;;;;;;5033285;28;20388;-57
2022/01/30 00:07:45;;;;;;;23.48;4.88;;;7.50;99.90;;;;;;5031258;28;20155;-59
2022/01/30 00:10:13;;;;;;;27.13;5.03;;;7.50;99.90;;;;;;5028148;28;20086;-58
2022/01/30 00:12:46;;;;;;;28.10;5.50;;;7.50;99.90;;;;;;5030962;28;20509;-58
2022/01/30 00:15:13;;;;;;;25.92;5.22;;;7.40;99.90;;;;;;5029742;28;20040;-59
2022/01/30 00:17:45;;;;;;;37.00;5.00;;;7.40;99.90;;;;;;5029058;28;20484;-58
2022/01/30 00:20:21;;;;;;;19.10;4.05;;;7.40;99.90;;;;;;5031684;28;20025;-58
2022/01/30 00:25:16;;;;;;;28.25;5.68;;;7.30;99.90;;;;;;5031593;28;20113;-58
2022/01/30 00:27:49;;;;;;;31.55;4.68;;;7.30;99.90;;;;;;5030857;28;20037;-58
2022/01/30 00:30:17;;;;;;;15.52;3.33;;;7.20;99.90;;;;;;5031405;28;20030;-59
2022/01/30 00:32:42;;;;;;;27.02;4.95;;;7.20;99.90;;;;;;5028237;28;20436;-59
2022/01/30 00:35:09;;;;;;;27.17;4.90;;;7.20;99.90;;;;;;5030280;28;20021;-58
2022/01/30 00:37:40;;;;;;;23.38;4.50;;;7.30;99.90;;;;;;5030392;28;20037;-58
2022/01/30 00:40:07;;;;;;;26.73;4.93;;;7.20;99.90;;;;;;5031033;28;20025;-58
2022/01/30 00:42:32;;;;;;;29.20;5.43;;;7.20;99.90;;;;;;5029478;28;20072;-59
2022/01/30 00:44:58;;;;;;;26.85;4.57;;;7.20;99.90;;;;;;5028243;28;20069;-58
2022/01/30 00:47:24;;;;;;;25.70;4.85;;;7.20;99.90;;;;;;5030157;28;20043;-58
2022/01/30 00:49:49;;;;;;;30.83;4.95;;;7.20;99.90;;;;;;5030541;28;20037;-58
2022/01/30 00:52:16;;;;;;;31.60;4.55;;;7.30;99.90;;;;;;5027306;28;20033;-59
2022/01/30 00:54:45;;;;;;;26.85;5.13;;;7.20;99.90;;;;;;5030278;28;20017;-58
2022/01/30 00:57:11;;;;;;;30.83;4.80;;;7.20;99.90;;;;;;5029263;28;20086;-59
2022/01/30 00:59:37;;;;;;;22.30;4.20;;;7.20;99.90;;;;;;5028647;28;20423;-58
2022/01/30 01:02:03;;;;;;;32.00;5.13;;;7.10;99.90;;;;;;5030510;28;20017;-58
2022/01/30 01:04:29;;;;;;;28.23;5.03;;;7.20;99.90;;;;;;5028800;28;20104;-59
2022/01/30 01:06:55;;;;;;;28.10;4.72;;;7.20;99.90;;;;;;5028470;28;20144;-58
2022/01/30 01:09:25;;;;;;;28.35;5.20;;;7.10;99.90;;;;;;5029178;28;20484;-59
2022/01/30 01:25:16;;;;;;;35.70;5.05;;;7.00;99.90;;;;;;5029308;28;20151;-59
2022/01/30 01:27:42;;;;;;;28.90;4.88;;;7.00;99.90;;;;;;5026526;28;20790;-57
2022/01/30 01:30:08;;;;;;;31.50;4.80;;;6.90;99.90;;;;;;5030542;28;20026;-59
2022/01/30 01:32:34;;;;;;;34.90;5.57;;;6.90;99.90;;;;;;5029298;28;20725;-59
2022/01/30 01:35:00;;;;;;;32.30;5.30;;;6.90;99.90;;;;;;5032429;28;20028;-58
2022/01/30 01:37:26;;;;;;;28.77;4.70;;;6.90;99.90;;;;;;5031286;28;20495;-58
2022/01/30 01:39:51;;;;;;;29.75;4.70;;;6.90;99.90;;;;;;5026861;28;20041;-58
2022/01/30 01:42:17;;;;;;;29.20;5.55;;;6.80;99.90;;;;;;5028917;28;20567;-58
2022/01/30 01:44:47;;;;;;;33.47;5.20;;;6.80;99.90;;;;;;5027861;28;20144;-58
2022/01/30 01:47:15;;;;;;;28.80;5.13;;;6.70;99.90;;;;;;5029284;28;20039;-58
2022/01/30 01:49:40;;;;;;;27.88;4.50;;;6.70;99.90;;;;;;5025223;28;20109;-58
2022/01/30 01:52:19;;;;;;;34.10;5.60;;;6.80;99.90;;;;;;5028870;28;20159;-58
2022/01/30 01:54:53;;;;;;;37.28;5.07;;;6.70;99.90;;;;;;5028916;28;20135;-58
2022/01/30 01:57:20;;;;;;;41.88;6.07;;;6.60;99.90;;;;;;5029784;28;20403;-59
2022/01/30 01:59:46;;;;;;;24.13;5.00;;;6.50;99.90;;;;;;5027841;28;20059;-58
2022/01/30 02:02:12;;;;;;;30.90;5.18;;;6.50;99.90;;;;;;5028185;28;20036;-58
2022/01/30 02:04:41;;;;;;;28.80;4.55;;;6.40;99.90;;;;;;5030010;28;20037;-59
2022/01/30 02:09:39;;;;;;;31.42;5.65;;;6.60;99.90;;;;;;5027923;28;20435;-58
2022/01/30 02:12:05;;;;;;;30.35;5.43;;;6.60;99.90;;;;;;5026415;28;20029;-59
2022/01/30 02:14:51;;;;;;;34.20;4.75;;;6.50;99.90;;;;;;5028044;28;20033;-58
2022/01/30 02:25:41;;;;;;;29.05;5.25;;;6.40;99.90;;;;;;5024514;28;20083;-58
2022/01/30 02:28:11;;;;;;;25.52;4.90;;;6.40;99.90;;;;;;5028559;28;20021;-59
2022/01/30 02:30:42;;;;;;;30.35;4.63;;;6.40;99.90;;;;;;5027880;28;20037;-58
2022/01/30 02:33:08;;;;;;;30.95;5.18;;;6.40;99.90;;;;;;5031048;28;20565;-58
2022/01/30 02:35:34;;;;;;;34.65;5.65;;;6.40;99.90;;;;;;5027312;28;20037;-58
2022/01/30 02:38:01;;;;;;;31.55;4.90;;;6.50;99.90;;;;;;5031117;28;20464;-59
2022/01/30 02:40:29;;;;;;;34.15;5.57;;;6.50;99.90;;;;;;5031318;28;20473;-58
2022/01/30 02:42:55;;;;;;;30.15;4.90;;;6.50;99.90;;;;;;5029416;28;20025;-58
2022/01/30 02:45:24;;;;;;;32.88;5.03;;;6.50;99.90;;;;;;5028434;28;20025;-58
2022/01/30 02:48:00;;;;;;;28.65;5.18;;;6.60;99.90;;;;;;5027455;28;20075;-59
2022/01/30 02:50:51;;;;;;;26.45;4.57;;;6.70;99.90;;;;;;5030048;28;20075;-58
2022/01/30 02:53:17;;;;;;;30.88;4.80;;;6.60;99.90;;;;;;5029491;28;20138;-58
2022/01/30 02:55:42;;;;;;;35.85;5.60;;;6.70;99.90;;;;;;5030193;28;20441;-59
2022/01/30 02:58:08;;;;;;;31.05;4.43;;;6.70;99.90;;;;;;5025758;28;20039;-59
2022/01/30 03:00:34;;;;;;;27.02;5.22;;;6.70;99.90;;;;;;5027915;28;20032;-58
2022/01/30 03:03:00;;;;;;;21.55;4.05;;;6.70;99.90;;;;;;5028989;28;20385;-59
2022/01/30 03:05:25;;;;;;;28.60;6.35;;;6.60;99.90;;;;;;5030629;28;20397;-58
2022/01/30 03:07:52;;;;;;;33.92;5.93;;;6.60;99.90;;;;;;5026516;28;20029;-59
2022/01/30 03:10:17;;;;;;;28.67;4.72;;;6.50;99.90;;;;;;5028783;28;20475;-58
2022/01/30 03:12:43;;;;;;;28.30;5.10;;;6.50;99.90;;;;;;5027964;28;20075;-59
2022/01/30 03:15:10;;;;;;;31.42;4.80;;;6.50;99.90;;;;;;5029055;28;20107;-59
2022/01/30 03:17:35;;;;;;;30.67;5.07;;;6.60;99.90;;;;;;5029472;28;20118;-59
2022/01/30 03:20:03;;;;;;;30.02;6.07;;;6.60;99.90;;;;;;5032229;28;20476;-59
2022/01/30 03:22:28;;;;;;;34.63;5.97;;;6.50;99.90;;;;;;5029167;28;20041;-58
2022/01/30 03:24:54;;;;;;;27.13;4.80;;;6.40;99.90;;;;;;5029371;28;20044;-59
2022/01/30 03:27:19;;;;;;;35.42;5.22;;;6.30;99.90;;;;;;5026464;28;20147;-59
2022/01/30 03:29:51;;;;;;;26.60;4.65;;;6.40;99.90;;;;;;5029440;28;20028;-58
2022/01/30 03:32:17;;;;;;;33.08;5.10;;;6.50;99.90;;;;;;5031590;28;20158;-59
2022/01/30 03:34:42;;;;;;;24.65;4.68;;;6.40;99.90;;;;;;5032503;28;20115;-58
2022/01/30 03:37:08;;;;;;;32.70;4.90;;;6.40;99.90;;;;;;5031147;28;20403;-58
2022/01/30 03:39:34;;;;;;;24.73;4.30;;;6.30;99.90;;;;;;5031426;28;20252;-59
2022/01/30 03:41:59;;;;;;;26.27;4.80;;;6.40;99.90;;;;;;5029102;28;20029;-58
2022/01/30 03:44:25;;;;;;;29.52;5.43;;;6.40;99.90;;;;;;5033386;28;20071;-59
2022/01/30 03:46:50;;;;;;;28.80;4.72;;;6.30;99.90;;;;;;5027712;28;20064;-59
2022/01/30 03:49:16;;;;;;;24.77;4.45;;;6.30;99.90;;;;;;5031467;28;20381;-58
2022/01/30 03:51:41;;;;;;;34.13;5.03;;;6.30;99.90;;;;;;5030804;28;20467;-58
2022/01/30 03:54:07;;;;;;;26.30;4.07;;;6.40;99.90;;;;;;5029662;28;20451;-58
2022/01/30 03:56:33;;;;;;;29.38;5.38;;;6.30;99.90;;;;;;5032915;28;20056;-59
2022/01/30 03:58:59;;;;;;;35.55;5.78;;;6.30;99.90;;;;;;5028544;28;20539;-59
2022/01/30 04:01:25;;;;;;;30.80;4.90;;;6.20;99.90;;;;;;5033535;28;20025;-59
2022/01/30 04:03:50;;;;;;;28.08;5.28;;;6.10;99.90;;;;;;5030822;28;20034;-58
2022/01/30 04:06:16;;;;;;;27.85;5.28;;;6.10;99.90;;;;;;5033454;28;20021;-58
2022/01/30 04:08:43;;;;;;;32.55;5.60;;;6.00;99.90;;;;;;5031541;28;20131;-59
2022/01/30 04:11:09;;;;;;;28.17;5.88;;;6.00;99.90;;;;;;5031732;28;20380;-58
2022/01/30 04:13:35;;;;;;;30.15;4.32;;;5.90;99.90;;;;;;5031627;28;20108;-58
2022/01/30 04:16:01;;;;;;;24.23;4.25;;;5.90;99.90;;;;;;5032206;28;20038;-58
2022/01/30 04:18:26;;;;;;;22.60;4.18;;;5.80;99.90;;;;;;5032459;28;20029;-58
2022/01/30 04:20:52;;;;;;;23.20;4.88;;;5.70;99.90;;;;;;5032504;28;20031;-58
2022/01/30 04:23:18;;;;;;;29.73;4.50;;;5.80;99.90;;;;;;5032200;28;20033;-59
2022/01/30 04:25:43;;;;;;;31.98;4.68;;;5.80;99.90;;;;;;5031738;28;20028;-58
2022/01/30 04:28:09;;;;;;;34.20;4.93;;;5.80;99.90;;;;;;5031477;28;20118;-58
2022/01/30 04:30:35;;;;;;;37.10;5.93;;;5.80;99.90;;;;;;5031691;28;20102;-58
2022/01/30 04:33:01;;;;;;;26.40;5.15;;;5.80;99.90;;;;;;5029111;28;20277;-58
2022/01/30 04:35:29;;;;;;;34.15;4.88;;;5.70;99.90;;;;;;5029782;28;20357;-59
2022/01/30 04:40:49;;;;;;;29.20;5.40;;;5.50;99.90;;;;;;5031493;28;20485;-59
2022/01/30 04:52:04;;;;;;;26.80;4.47;;;5.60;99.90;;;;;;5031788;28;20025;-58
2022/01/30 05:00:18;;;;;;;29.27;5.18;;;5.50;99.90;;;;;;5030082;28;20047;-59
2022/01/30 05:02:56;;;;;;;26.25;4.78;;;5.60;99.90;;;;;;5027847;28;20741;-58
2022/01/30 05:08:07;;;;;;;27.67;4.35;;;5.60;99.90;;;;;;5029780;28;20036;-58
2022/01/30 05:10:32;;;;;;;27.10;5.13;;;5.50;99.90;;;;;;5028608;28;20036;-58
2022/01/30 05:13:00;;;;;;;29.05;4.20;;;5.60;99.90;;;;;;5032410;28;20029;-59
2022/01/30 05:15:28;;;;;;;32.22;5.45;;;5.60;99.90;;;;;;5030948;28;20044;-59
2022/01/30 05:17:54;;;;;;;25.85;4.03;;;5.60;99.90;;;;;;5025790;28;20124;-59
2022/01/30 05:20:20;;;;;;;35.78;4.90;;;5.60;99.90;;;;;;5031102;28;20035;-58
2022/01/30 05:22:46;;;;;;;24.27;4.78;;;5.60;99.90;;;;;;5030080;28;20456;-59
2022/01/30 05:25:12;;;;;;;24.25;4.20;;;5.60;99.90;;;;;;5027297;28;20040;-59
2022/01/30 05:27:38;;;;;;;24.95;5.03;;;5.60;99.90;;;;;;5027743;28;20550;-59
2022/01/30 05:30:05;;;;;;;27.60;4.43;;;5.60;99.90;;;;;;5031768;28;20025;-58
2022/01/30 05:32:31;;;;;;;24.52;4.75;;;5.70;99.90;;;;;;5027159;28;20353;-58
2022/01/30 05:34:57;;;;;;;28.20;4.50;;;5.60;99.90;;;;;;5029294;28;21146;-58
2022/01/30 05:37:23;;;;;;;31.20;5.10;;;5.60;99.90;;;;;;5031666;28;20035;-58
2022/01/30 05:39:48;;;;;;;28.10;4.78;;;5.70;99.90;;;;;;5027039;28;20059;-59
2022/01/30 05:42:15;;;;;;;43.25;5.85;;;5.70;99.90;;;;;;5027951;28;20363;-59
2022/01/30 05:45:10;;;;;;;30.77;4.68;;;5.60;99.90;;;;;;5030365;28;20033;-59
2022/01/30 05:47:37;;;;;;;33.00;5.05;;;5.60;99.90;;;;;;5029879;28;20138;-59
2022/01/30 05:50:02;;;;;;;;;;;5.70;99.90;;;;;;5029835;28;20035;-58
2022/01/30 05:52:28;;;;;;;21.58;3.88;;;5.70;99.90;;;;;;5028061;28;20024;-58
2022/01/30 05:54:53;;;;;;;28.95;4.88;;;5.60;99.90;;;;;;5028602;28;20029;-57
2022/01/30 05:57:19;;;;;;;29.52;4.78;;;5.50;99.90;;;;;;5028475;28;20030;-59
2022/01/30 05:59:45;;;;;;;26.08;3.50;;;5.50;99.90;;;;;;5031066;28;20025;-59
2022/01/30 06:02:10;;;;;;;21.20;4.28;;;5.40;99.90;;;;;;5030079;28;20026;-58
2022/01/30 06:04:36;;;;;;;24.23;4.30;;;5.50;99.90;;;;;;5027515;28;20063;-58
2022/01/30 06:07:02;;;;;;;23.98;3.95;;;5.50;99.90;;;;;;5024389;28;20265;-58
2022/01/30 06:09:28;;;;;;;25.13;4.00;;;5.40;99.90;;;;;;5025310;28;20468;-59
2022/01/30 06:11:53;;;;;;;21.90;4.05;;;5.40;99.90;;;;;;5027987;28;20093;-58
2022/01/30 06:14:20;;;;;;;23.67;4.90;;;5.50;99.90;;;;;;5029610;28;20025;-58
2022/01/30 06:16:47;;;;;;;27.35;4.25;;;5.50;99.90;;;;;;5028745;28;20473;-58
2022/01/30 06:19:13;;;;;;;34.22;4.32;;;5.50;99.90;;;;;;5027212;28;20029;-58
2022/01/30 06:21:38;;;;;;;24.48;3.90;;;5.50;99.90;;;;;;5031226;28;20547;-58
2022/01/30 06:24:04;;;;;;;22.42;3.92;;;5.50;99.90;;;;;;5029062;28;20025;-58
2022/01/30 06:26:30;;;;;;;25.13;4.30;;;5.50;99.90;;;;;;5027130;28;20021;-59
2022/01/30 06:28:55;;;;;;;23.40;3.75;;;5.60;99.90;;;;;;5026344;28;20025;-59
2022/01/30 06:31:22;;;;;;;23.73;3.55;;;5.50;99.90;;;;;;5028531;28;20532;-58
2022/01/30 06:33:48;;;;;;;26.50;3.72;;;5.40;99.90;;;;;;5027644;28;20126;-58
2022/01/30 06:36:13;;;;;;;18.38;3.70;;;5.50;99.90;;;;;;5026486;28;20056;-58
2022/01/30 06:38:39;;;;;;;16.25;3.20;;;5.50;99.90;;;;;;5026102;28;20029;-59
2022/01/30 06:41:04;;;;;;;22.17;3.90;;;5.60;99.90;;;;;;5024872;28;20049;-58
2022/01/30 06:43:30;;;;;;;18.85;3.30;;;5.60;99.90;;;;;;5029757;28;20116;-59
2022/01/30 06:45:56;;;;;;;26.23;4.10;;;5.70;99.90;;;;;;5025938;28;20033;-58
2022/01/30 06:48:22;;;;;;;23.02;3.65;;;5.70;99.90;;;;;;5025796;28;20648;-58
2022/01/30 06:50:48;;;;;;;23.17;3.55;;;5.70;99.90;;;;;;5023495;28;20028;-59
2022/01/30 06:53:14;;;;;;;14.60;3.03;;;5.80;99.90;;;;;;5027929;28;20028;-58
2022/01/30 06:55:42;;;;;;;20.17;3.50;;;5.80;99.90;;;;;;5028027;28;20700;-58
2022/01/30 06:58:12;;;;;;;20.92;3.30;;;5.80;99.90;;;;;;5026750;28;20036;-58
2022/01/30 07:00:38;;;;;;;18.35;3.95;;;5.80;99.90;;;;;;5028254;28;20520;-58
2022/01/30 07:03:04;;;;;;;24.85;3.40;;;5.80;99.90;;;;;;5028490;28;20057;-58
2022/01/30 07:05:30;;;;;;;18.67;3.55;;;5.90;99.90;;;;;;5026185;28;20032;-59
2022/01/30 07:07:55;;;;;;;20.52;3.45;;;5.80;99.90;;;;;;5028994;28;20036;-58
2022/01/30 07:10:21;;;;;;;24.08;3.33;;;5.70;99.90;;;;;;5026848;28;20032;-59
2022/01/30 07:12:47;;;;;;;17.55;3.35;;;5.60;99.90;;;;;;5027132;28;20013;-58
2022/01/30 07:15:14;;;;;;;25.08;3.42;;;5.60;99.90;;;;;;5028748;28;20021;-59
2022/01/30 07:17:39;;;;;;;17.20;3.20;;;5.70;99.90;;;;;;5028314;28;20115;-58
2022/01/30 07:20:05;;;;;;;19.48;3.92;;;5.70;99.90;;;;;;5027116;28;20119;-58
2022/01/30 07:22:31;;;;;;;19.80;3.70;;;5.80;99.90;;;;;;5027889;28;20041;-58
2022/01/30 07:24:57;;;;;;;19.23;3.78;;;5.70;99.90;;;;;;5028317;28;20629;-58
2022/01/30 07:27:23;;;;;;;25.60;3.20;;;5.70;99.90;;;;;;5028955;28;20700;-58
2022/01/30 07:29:49;;;;;;;21.13;3.53;;;5.70;99.90;;;;;;5026584;28;20042;-58
2022/01/30 07:32:15;;;;;;;28.30;4.00;;;5.70;99.90;;;;;;5025398;28;20036;-58
2022/01/30 07:34:40;;;;;;;20.20;3.30;;;5.70;99.90;;;;;;5026569;28;20033;-59
2022/01/30 07:37:08;;;;;;;18.90;2.97;;;5.60;99.90;;;;;;5028250;28;20033;-58
2022/01/30 07:39:35;;;;;;;26.70;4.05;;;5.60;99.90;;;;;;5025991;28;20404;-58
2022/01/30 07:42:02;;;;;;;24.35;3.70;;;5.70;99.90;;;;;;5026521;28;20539;-58
2022/01/30 07:44:28;;;;;;;28.08;3.90;;;5.60;99.90;;;;;;5028754;28;20168;-58
2022/01/30 07:46:53;;;;;;;26.45;4.13;;;5.70;99.90;;;;;;5026549;28;20493;-58
2022/01/30 07:49:19;;;;;;;20.13;3.13;;;5.60;99.90;;;;;;5028205;28;20037;-58
2022/01/30 07:51:45;;;;;;;22.10;3.85;;;5.60;99.90;;;;;;5027592;28;20028;-58
2022/01/30 07:54:10;;;;;;;19.73;3.05;;;5.50;99.90;;;;;;5025543;28;20235;-58
2022/01/30 07:56:36;;;;;;;23.13;4.10;;;5.50;99.90;;;;;;5030372;28;20075;-58
2022/01/30 07:59:02;;;;;;;20.90;3.53;;;5.50;99.90;;;;;;5025860;28;20720;-59
2022/01/30 08:01:27;;;;;;;17.58;3.08;;;5.40;99.90;;;;;;5027320;28;20028;-59
2022/01/30 08:03:53;;;;;;;25.13;3.45;;;5.40;99.90;;;;;;5027665;28;20029;-58
2022/01/30 08:06:18;;;;;;;20.92;3.42;;;5.40;99.90;;;;;;5030720;28;20068;-58
2022/01/30 08:08:44;;;;;;;24.95;3.50;;;5.50;99.90;;;;;;5030019;28;20025;-58
2022/01/30 08:11:10;;;;;;;22.35;3.25;;;5.50;99.90;;;;;;5033375;28;20025;-59
2022/01/30 08:13:36;;;;;;;18.70;3.33;;;5.60;99.90;;;;;;5030350;28;20672;-58
2022/01/30 08:16:02;;;;;;;19.52;3.90;;;5.60;99.90;;;;;;5031917;28;20033;-58
2022/01/30 08:18:28;;;;;;;27.77;4.10;;;5.70;99.90;;;;;;5032657;28;20029;-58
2022/01/30 08:20:54;;;;;;;21.20;3.50;;;5.80;99.90;;;;;;5030816;28;20504;-58
2022/01/30 08:23:23;;;;;;;22.98;3.72;;;5.90;99.90;;;;;;5027389;28;20314;-59
2022/01/30 08:25:48;;;;;;;21.15;3.85;;;5.80;99.90;;;;;;5030773;28;20044;-58
2022/01/30 08:28:14;;;;;;;19.90;3.78;;;5.80;99.90;;;;;;5025564;28;20056;-57
2022/01/30 08:30:40;;;;;;;22.27;3.05;;;5.70;99.90;;;;;;5031387;28;20033;-59
2022/01/30 08:33:06;;;;;;;18.10;3.55;;;5.80;99.90;;;;;;5027878;28;20354;-59
2022/01/30 08:35:32;;;;;;;23.10;3.80;;;5.80;99.90;;;;;;5031717;28;20037;-59
2022/01/30 08:37:58;;;;;;;21.98;3.95;;;5.90;99.90;;;;;;5032199;28;20056;-58
2022/01/30 08:40:25;;;;;;;23.77;3.47;;;5.90;99.90;;;;;;5032817;28;20025;-59
2022/01/30 08:42:51;;;;;;;29.17;4.47;;;5.90;99.90;;;;;;5030457;28;20511;-59
2022/01/30 08:45:18;;;;;;;29.00;4.13;;;6.00;99.90;;;;;;5031527;28;20029;-59
2022/01/30 08:47:47;;;;;;;28.10;3.72;;;5.90;99.90;;;;;;5030038;28;20191;-59
2022/01/30 08:50:15;;;;;;;22.90;4.10;;;5.90;99.90;;;;;;5029766;28;20035;-59
2022/01/30 08:52:42;;;;;;;21.80;4.03;;;5.80;99.90;;;;;;5028645;28;20026;-60
2022/01/30 08:55:09;;;;;;;22.75;3.28;;;5.90;99.90;;;;;;5030185;28;20520;-59
2022/01/30 08:57:36;;;;;;;26.58;4.45;;;6.00;99.90;;;;;;5030455;28;20091;-60
2022/01/30 09:00:06;;;;;;;27.38;3.97;;;6.10;99.90;;;;;;5029719;28;20026;-59
2022/01/30 09:02:32;;;;;;;21.77;4.07;;;6.20;99.90;;;;;;5031683;28;20053;-59
2022/01/30 09:04:58;;;;;;;21.40;3.88;;;6.20;99.90;;;;;;5029935;28;20062;-59
2022/01/30 09:07:23;;;;;;;27.60;5.05;;;6.30;99.90;;;;;;5030576;28;20515;-59
2022/01/30 09:09:49;;;;;;;24.90;4.03;;;6.30;99.90;;;;;;5031443;28;20044;-59
2022/01/30 09:12:14;;;;;;;30.73;4.50;;;6.30;99.90;;;;;;5031501;28;20091;-59
2022/01/30 09:14:42;;;;;;;24.95;4.15;;;6.40;99.90;;;;;;5029703;28;20117;-60
2022/01/30 09:17:13;;;;;;;24.38;3.38;;;6.40;99.90;;;;;;5030361;28;21048;-59
2022/01/30 09:19:45;;;;;;;25.40;5.32;;;6.30;99.90;;;;;;5031938;28;20044;-59
2022/01/30 09:22:13;;;;;;;22.98;4.10;;;6.30;99.90;;;;;;5028447;28;20029;-59
2022/01/30 09:24:40;;;;;;;21.77;3.97;;;6.40;99.90;;;;;;5030752;28;20700;-59
2022/01/30 09:27:07;;;;;;;26.85;4.25;;;6.30;99.90;;;;;;5033038;28;20095;-59
2022/01/30 09:29:34;;;;;;;25.95;4.53;;;6.40;99.90;;;;;;5029909;28;20075;-59
2022/01/30 09:32:00;;;;;;;25.02;4.15;;;6.40;99.90;;;;;;5031404;28;20081;-59
2022/01/30 09:34:26;;;;;;;27.80;5.22;;;6.50;99.90;;;;;;5031628;28;20462;-59
2022/01/30 09:36:52;;;;;;;25.25;4.95;;;6.40;99.90;;;;;;5028328;28;20047;-59
2022/01/30 09:39:18;;;;;;;19.13;3.90;;;6.40;99.90;;;;;;5031793;28;20040;-59
2022/01/30 09:41:44;;;;;;;26.38;4.05;;;6.50;99.90;;;;;;5030534;28;20115;-59
2022/01/30 09:44:11;;;;;;;26.00;4.15;;;6.50;99.90;;;;;;5028054;28;20025;-59
2022/01/30 09:46:42;;;;;;;26.90;4.30;;;6.50;99.90;;;;;;5032180;28;20033;-59
2022/01/30 09:49:09;;;;;;;24.95;4.13;;;6.50;99.90;;;;;;5031177;28;20017;-59
2022/01/30 09:51:36;;;;;;;29.35;4.32;;;6.50;99.90;;;;;;5027510;28;20044;-59
2022/01/30 09:54:03;;;;;;;29.20;4.10;;;6.50;99.90;;;;;;5029493;28;20512;-59
2022/01/30 09:56:28;;;;;;;35.10;4.55;;;6.60;99.90;;;;;;5029204;28;20371;-59
2022/01/30 09:58:54;;;;;;;23.77;4.47;;;6.60;99.90;;;;;;5029429;28;20083;-59
2022/01/30 10:01:20;;;;;;;27.00;4.35;;;6.50;99.90;;;;;;5032753;28;20091;-59
2022/01/30 10:03:49;;;;;;;28.67;4.03;;;6.60;99.90;;;;;;5028907;28;20132;-59
2022/01/30 10:06:20;;;;;;;27.95;5.10;;;6.60;99.90;;;;;;5027528;28;20048;-59
2022/01/30 10:08:51;;;;;;;23.25;4.97;;;6.70;99.90;;;;;;5029289;28;20059;-59
2022/01/30 10:14:05;;;;;;;28.08;5.00;;;6.70;99.90;;;;;;5027886;28;20078;-59
2022/01/30 10:16:45;;;;;;;24.25;4.05;;;6.70;99.90;;;;;;5030165;28;20039;-59
2022/01/30 10:19:17;;;;;;;28.98;4.80;;;6.80;99.90;;;;;;5028122;28;20033;-59
2022/01/30 10:21:43;;;;;;;25.27;4.80;;;7.00;99.90;;;;;;5031979;28;20029;-59
2022/01/30 10:24:21;;;;;;;29.05;4.75;;;7.00;99.90;;;;;;5029249;28;20059;-59
2022/01/30 10:26:48;;;;;;;37.63;5.70;;;7.10;99.90;;;;;;5030778;28;20143;-59
2022/01/30 10:29:24;;;;;;;28.75;4.68;;;7.00;99.90;;;;;;5026582;28;20029;-60
2022/01/30 10:32:02;;;;;;;26.77;4.63;;;6.90;99.90;;;;;;5025435;28;20172;-59
2022/01/30 10:34:28;;;;;;;27.63;4.65;;;6.90;99.90;;;;;;5030419;28;20352;-59
2022/01/30 10:37:19;;;;;;;25.00;4.95;;;6.90;99.90;;;;;;5026931;28;20017;-59
2022/01/30 10:40:07;;;;;;;23.52;4.82;;;6.90;99.90;;;;;;5027885;28;20029;-59
2022/01/30 10:42:44;;;;;;;27.88;4.85;;;7.00;99.90;;;;;;5024423;28;20502;-59
2022/01/30 10:45:13;;;;;;;24.77;4.55;;;7.00;99.90;;;;;;5030939;28;20388;-59
2022/01/30 10:47:39;;;;;;;28.38;5.05;;;7.10;99.90;;;;;;5027288;28;20392;-59
2022/01/30 10:50:23;;;;;;;23.92;4.95;;;7.20;99.90;;;;;;5027481;28;20132;-59
2022/01/30 10:52:53;;;;;;;28.50;5.07;;;7.20;99.90;;;;;;5030970;28;20573;-59
2022/01/30 10:55:42;;;;;;;33.65;5.07;;;7.20;99.90;;;;;;5031851;28;20720;-59
2022/01/30 10:58:12;;;;;;;30.42;5.80;;;7.20;99.90;;;;;;5026713;28;20032;-59
2022/01/30 11:00:39;;;;;;;32.70;4.85;;;7.30;99.90;;;;;;5028915;28;20040;-59
2022/01/30 11:03:05;;;;;;;29.40;5.68;;;7.30;99.90;;;;;;5028464;28;20486;-59
2022/01/30 11:05:33;;;;;;;35.80;5.68;;;7.40;99.90;;;;;;5029517;28;20048;-60
2022/01/30 11:07:58;;;;;;;34.97;6.03;;;7.40;99.90;;;;;;5029826;28;20063;-59
2022/01/30 11:10:26;;;;;;;30.05;4.90;;;7.40;99.90;;;;;;5031125;28;20049;-59
2022/01/30 11:12:57;;;;;;;27.30;5.05;;;7.40;99.90;;;;;;5026966;28;20032;-59
2022/01/30 11:17:55;;;;;;;24.95;4.82;;;7.40;99.90;;;;;;5029929;28;20024;-59
2022/01/30 11:20:23;;;;;;;36.80;5.85;;;7.30;99.90;;;;;;5032247;28;20143;-59
2022/01/30 11:22:51;;;;;;;33.53;5.53;;;7.30;99.90;;;;;;5026354;28;20033;-58
2022/01/30 11:25:18;;;;;;;31.90;5.97;;;7.20;99.90;;;;;;5028277;28;20481;-59
2022/01/30 11:27:47;;;;;;;32.17;5.65;;;7.30;99.90;;;;;;5026934;28;20083;-59
2022/01/30 11:30:15;;;;;;;29.90;6.00;;;7.30;99.90;;;;;;5031725;28;20030;-60
2022/01/30 11:32:42;;;;;;;39.42;9.70;;;7.30;99.90;;;;;;5028747;28;20028;-60
2022/01/30 11:35:09;;;;;;;33.78;5.82;;;7.40;99.90;;;;;;5029575;28;20049;-59
2022/01/30 11:37:39;;;;;;;38.72;5.57;;;7.60;99.90;;;;;;5028379;28;20029;-59
2022/01/30 11:40:13;;;;;;;33.97;5.95;;;7.60;99.90;;;;;;5031285;28;20618;-59
2022/01/30 11:42:44;;;;;;;31.50;5.90;;;7.50;99.90;;;;;;5032972;28;20036;-60
2022/01/30 11:45:24;;;;;;;34.97;5.95;;;7.40;99.90;;;;;;5031277;28;20509;-58
2022/01/30 11:47:55;;;;;;;24.73;5.70;;;7.50;99.90;;;;;;5031173;28;20060;-60
2022/01/30 11:50:30;;;;;;;30.85;5.97;;;7.50;99.90;;;;;;5033107;28;20047;-59
2022/01/30 11:53:26;;;;;;;33.20;5.97;;;7.60;99.90;;;;;;5032584;28;20029;-59
2022/01/30 11:56:00;;;;;;;34.85;5.38;;;7.60;99.90;;;;;;5029278;28;20029;-59
2022/01/30 11:58:42;;;;;;;36.55;5.82;;;7.60;99.90;;;;;;5033334;28;20104;-59
2022/01/30 12:01:37;;;;;;;30.35;5.72;;;7.50;99.90;;;;;;5029952;28;20038;-59
2022/01/30 12:04:06;;;;;;;44.97;6.00;;;7.60;99.90;;;;;;5031146;28;20025;-59
2022/01/30 12:06:35;;;;;;;32.00;7.00;;;7.60;99.90;;;;;;5032822;28;20083;-59
2022/01/30 12:09:03;;;;;;;31.45;5.28;;;7.70;99.90;;;;;;5028510;28;20548;-59
2022/01/30 12:11:34;;;;;;;37.30;5.65;;;7.70;99.90;;;;;;5029718;28;20564;-59
2022/01/30 12:14:01;;;;;;;33.92;4.78;;;7.80;99.90;;;;;;5031107;28;20016;-59
2022/01/30 12:16:56;;;;;;;31.58;5.45;;;7.90;99.90;;;;;;5033418;28;20080;-60
2022/01/30 12:19:50;;;;;;;31.55;5.43;;;8.00;99.90;;;;;;5030049;28;20420;-59
2022/01/30 12:22:16;;;;;;;36.95;5.30;;;8.00;99.90;;;;;;5032890;28;20022;-59
2022/01/30 12:24:47;;;;;;;33.33;5.75;;;8.00;99.90;;;;;;5033082;28;20373;-59
2022/01/30 12:27:13;;;;;;;33.90;5.80;;;7.90;99.90;;;;;;5031240;28;20022;-59
2022/01/30 12:29:45;;;;;;;31.17;5.22;;;7.80;99.90;;;;;;5027636;28;20128;-59
2022/01/30 12:32:22;;;;;;;35.97;6.13;;;7.80;99.90;;;;;;5031697;28;20022;-60
2022/01/30 12:34:56;;;;;;;32.83;5.70;;;7.80;99.90;;;;;;5029176;28;20080;-59
2022/01/30 12:37:37;;;;;;;29.67;5.25;;;7.80;99.90;;;;;;5032387;28;20500;-59
2022/01/30 12:40:20;;;;;;;29.83;5.75;;;7.80;99.90;;;;;;5031498;28;20040;-59
2022/01/30 12:42:46;;;;;;;31.90;5.20;;;7.80;99.90;;;;;;5034851;28;20033;-60
2022/01/30 12:45:13;;;;;;;24.25;4.93;;;7.70;99.90;;;;;;5031274;28;20029;-59
2022/01/30 12:48:08;;;;;;;29.10;5.70;;;7.70;99.90;;;;;;5030391;28;20029;-59
2022/01/30 12:50:37;;;;;;;32.38;5.63;;;7.60;99.90;;;;;;5030341;28;20045;-59
2022/01/30 12:53:06;;;;;;;33.08;6.07;;;7.60;99.90;;;;;;5030474;28;20381;-59
2022/01/30 12:55:32;;;;;;;27.45;4.47;;;7.70;99.90;;;;;;5031694;28;20115;-59
2022/01/30 12:57:59;;;;;;;32.42;5.93;;;7.70;99.90;;;;;;5030934;28;20587;-59
2022/01/30 13:00:24;;;;;;;43.47;5.50;;;7.90;99.90;;;;;;5029860;28;20031;-59
2022/01/30 13:02:59;;;;;;;27.02;4.55;;;7.80;99.90;;;;;;5029433;28;20096;-59
2022/01/30 13:05:26;;;;;;;29.42;5.07;;;7.80;99.90;;;;;;5033362;28;20424;-59
2022/01/30 13:07:53;;;;;;;32.83;5.53;;;7.70;99.90;;;;;;5033460;28;20552;-59
2022/01/30 13:10:19;;;;;;;35.50;5.38;;;7.80;99.90;;;;;;5033171;28;20708;-59
2022/01/30 13:12:45;;;;;;;33.70;5.32;;;7.90;99.90;;;;;;5028155;28;20051;-59
2022/01/30 13:15:22;;;;;;;29.95;5.82;;;8.00;99.90;;;;;;5030162;28;20035;-60
2022/01/30 13:17:49;;;;;;;31.75;5.35;;;8.10;99.90;;;;;;5032743;28;20148;-59
2022/01/30 13:20:15;;;;;;;26.27;5.00;;;8.10;99.90;;;;;;5028171;28;20791;-59
2022/01/30 13:22:43;;;;;;;34.70;5.38;;;8.10;99.90;;;;;;5033467;28;20097;-59
2022/01/30 13:25:15;;;;;;;27.05;5.13;;;8.10;99.90;;;;;;5031627;28;20448;-59
2022/01/30 13:27:43;;;;;;;33.20;5.10;;;8.00;99.90;;;;;;5030939;28;20040;-59
2022/01/30 13:30:10;;;;;;;27.10;5.60;;;8.00;99.90;;;;;;5028382;28;20025;-59
2022/01/30 13:32:40;;;;;;;32.25;5.78;;;7.90;99.90;;;;;;5030947;28;20029;-59
2022/01/30 13:35:18;;;;;;;28.08;5.32;;;8.00;99.90;;;;;;5029548;28;20091;-59
2022/01/30 13:37:45;;;;;;;34.25;5.78;;;8.20;99.90;;;;;;5028731;28;20017;-59
2022/01/30 13:40:36;;;;;;;24.35;4.50;;;8.30;99.90;;;;;;5030251;28;20049;-59
2022/01/30 13:43:13;;;;;;;28.13;5.35;;;8.20;99.90;;;;;;5027461;28;20022;-59
2022/01/30 13:48:11;;;;;;;32.55;6.20;;;8.20;99.90;;;;;;5030447;28;20174;-59